createdAt,value
2019-02-27T00:00:48.220Z,26.47
2019-02-27T00:05:56.715Z,24.70
2019-02-27T00:11:02.714Z,25.83
2019-02-27T00:16:11.619Z,25.20
2019-02-27T00:21:18.192Z,25.87
2019-02-27T00:26:24.805Z,24.07
2019-02-27T00:31:31.784Z,24.00
2019-02-27T00:36:38.636Z,22.97
2019-02-27T00:41:45.999Z,22.50
2019-02-27T00:46:52.445Z,21.83
2019-02-27T00:51:59.338Z,21.60
2019-02-27T00:57:06.346Z,21.40
2019-02-27T01:02:13.353Z,21.40
2019-02-27T01:07:20.834Z,21.07
2019-02-27T01:12:29.299Z,22.13
2019-02-27T01:17:36.263Z,21.17
2019-02-27T01:22:43.754Z,20.37
2019-02-27T01:27:49.766Z,19.83
2019-02-27T01:32:55.857Z,21.23
2019-02-27T01:38:05.119Z,21.17
2019-02-27T01:43:09.603Z,20.67
2019-02-27T01:48:15.608Z,21.70
2019-02-27T01:53:21.620Z,20.83
2019-02-27T01:58:46.866Z,20.97
2019-02-27T02:03:52.831Z,21.10
2019-02-27T02:09:34.274Z,21.83
2019-02-27T02:15:12.613Z,20.03
2019-02-27T02:20:53.248Z,19.90
2019-02-27T02:26:25.470Z,19.63
2019-02-27T02:31:57.826Z,19.87
2019-02-27T02:37:19.685Z,20.50
2019-02-27T02:43:05.873Z,19.30
2019-02-27T02:48:22.273Z,19.90
2019-02-27T02:53:32.651Z,19.37
2019-02-27T02:59:33.445Z,19.40
2019-02-27T03:05:23.274Z,21.43
2019-02-27T03:10:55.736Z,20.50
2019-02-27T03:16:17.954Z,19.70
2019-02-27T03:22:05.894Z,18.80
2019-02-27T03:27:56.066Z,19.40
2019-02-27T03:33:30.832Z,20.23
2019-02-27T03:38:55.907Z,19.83
2019-02-27T03:44:25.731Z,19.60
2019-02-27T03:50:06.359Z,20.33
2019-02-27T03:55:54.569Z,20.87
2019-02-27T04:01:30.672Z,20.73
2019-02-27T04:07:07.856Z,21.23
2019-02-27T04:12:16.624Z,20.83
2019-02-27T04:17:35.635Z,22.27
2019-02-27T04:23:00.889Z,18.63
2019-02-27T04:28:08.103Z,18.33
2019-02-27T04:33:14.071Z,18.50
2019-02-27T04:38:20.186Z,18.50
2019-02-27T04:43:26.301Z,20.20
2019-02-27T04:48:45.165Z,18.67
2019-02-27T04:53:51.833Z,19.23
2019-02-27T04:58:57.899Z,19.77
2019-02-27T05:04:03.950Z,19.63
2019-02-27T05:09:10.065Z,19.20
2019-02-27T05:14:16.154Z,18.83
2019-02-27T05:19:22.219Z,19.47
2019-02-27T05:24:28.282Z,17.03
2019-02-27T05:29:35.154Z,17.83
2019-02-27T05:34:42.066Z,18.23
2019-02-27T05:39:50.710Z,17.43
2019-02-27T05:44:56.680Z,17.37
2019-02-27T05:50:04.818Z,18.13
2019-02-27T05:55:10.947Z,18.03
2019-02-27T06:00:22.437Z,18.53
2019-02-27T06:05:30.393Z,18.73
2019-02-27T06:10:37.496Z,17.00
2019-02-27T06:15:44.372Z,18.43
2019-02-27T06:20:50.488Z,16.37
2019-02-27T06:25:59.440Z,18.20
2019-02-27T06:31:05.184Z,17.67
2019-02-27T06:36:12.155Z,18.37
2019-02-27T06:41:18.626Z,17.90
2019-02-27T06:46:25.965Z,19.90
2019-02-27T06:51:33.347Z,19.63
2019-02-27T06:56:41.877Z,18.37
2019-02-27T07:01:48.103Z,19.50
2019-02-27T07:06:55.469Z,20.73
2019-02-27T07:12:03.486Z,22.00
2019-02-27T07:17:09.515Z,20.60
2019-02-27T07:22:16.169Z,21.77
2019-02-27T07:27:22.956Z,20.60
2019-02-27T07:32:31.564Z,19.33
2019-02-27T07:37:39.671Z,20.30
2019-02-27T07:42:45.679Z,18.13
2019-02-27T07:47:51.718Z,19.93
2019-02-27T07:52:57.701Z,19.67
2019-02-27T07:58:03.783Z,18.57
2019-02-27T08:03:12.874Z,20.00
2019-02-27T08:08:17.611Z,18.13
2019-02-27T08:13:23.673Z,19.03
2019-02-27T08:18:30.625Z,19.20
2019-02-27T08:23:37.522Z,20.60
2019-02-27T08:28:43.680Z,19.57
2019-02-27T08:33:49.886Z,17.77
2019-02-27T08:38:55.955Z,18.67
2019-02-27T08:44:02.138Z,18.33
2019-02-27T08:49:08.219Z,19.80
2019-02-27T08:54:16.066Z,18.60
2019-02-27T08:59:22.363Z,18.63
2019-02-27T09:04:28.763Z,19.43
2019-02-27T09:09:36.224Z,18.20
2019-02-27T09:14:42.367Z,19.43
2019-02-27T09:19:48.524Z,19.03
2019-02-27T09:24:57.241Z,18.37
2019-02-27T09:30:04.668Z,18.00
2019-02-27T09:35:14.128Z,17.87
2019-02-27T09:40:30.002Z,17.57
2019-02-27T09:45:37.155Z,17.57
2019-02-27T09:50:48.928Z,18.33
2019-02-27T09:55:56.127Z,17.17
2019-02-27T10:01:14.819Z,17.27
2019-02-27T10:06:23.010Z,17.43
2019-02-27T10:11:30.085Z,16.07
2019-02-27T10:16:37.125Z,17.33
2019-02-27T10:21:45.256Z,16.43
2019-02-27T10:26:53.601Z,15.67
2019-02-27T10:32:00.722Z,16.60
2019-02-27T10:37:07.619Z,16.63
2019-02-27T10:42:14.897Z,16.97
2019-02-27T10:47:21.870Z,15.77
2019-02-27T10:52:28.928Z,15.70
2019-02-27T10:57:38.333Z,13.63
2019-02-27T11:02:45.108Z,15.13
2019-02-27T11:07:52.896Z,13.80
2019-02-27T11:13:05.734Z,13.90
2019-02-27T11:18:09.032Z,14.47
2019-02-27T11:23:15.239Z,13.60
2019-02-27T11:28:21.392Z,12.53
2019-02-27T11:33:32.386Z,11.03
2019-02-27T11:38:35.495Z,11.80
2019-02-27T11:43:42.013Z,11.57
2019-02-27T11:48:48.345Z,10.87
2019-02-27T11:53:54.554Z,10.23
2019-02-27T11:59:02.333Z,11.43
2019-02-27T12:04:08.506Z,11.07
2019-02-27T12:09:14.627Z,10.10
2019-02-27T12:14:21.335Z,8.70
2019-02-27T12:19:27.408Z,8.80
2019-02-27T12:24:33.714Z,9.80
2019-02-27T12:29:39.762Z,9.53
2019-02-27T12:34:46.795Z,8.07
2019-02-27T12:39:52.946Z,6.97
2019-02-27T12:44:58.976Z,6.87
2019-02-27T12:50:10.889Z,7.13
2019-02-27T12:55:20.450Z,5.63
2019-02-27T13:00:32.299Z,5.80
2019-02-27T13:05:39.216Z,5.30
2019-02-27T13:10:45.368Z,4.30
2019-02-27T13:15:52.358Z,4.17
2019-02-27T13:20:58.541Z,5.07
2019-02-27T13:26:06.698Z,4.50
2019-02-27T13:31:16.197Z,6.00
2019-02-27T13:36:22.820Z,6.33
2019-02-27T13:41:29.880Z,7.00
2019-02-27T13:46:37.088Z,7.10
2019-02-27T13:51:45.856Z,6.87
2019-02-27T13:56:52.185Z,7.27
2019-02-27T14:02:00.653Z,6.20
2019-02-27T14:07:08.448Z,5.57
2019-02-27T14:12:15.779Z,6.43
2019-02-27T14:17:24.372Z,6.30
2019-02-27T14:22:31.677Z,5.80
2019-02-27T14:27:39.960Z,6.77
2019-02-27T14:32:47.436Z,6.13
2019-02-27T14:37:54.014Z,6.30
2019-02-27T14:43:00.388Z,6.60
2019-02-27T14:48:06.673Z,6.53
2019-02-27T14:53:12.928Z,5.97
2019-02-27T14:58:21.794Z,6.20
2019-02-27T15:03:30.079Z,7.73
2019-02-27T15:08:35.045Z,5.80
2019-02-27T15:13:42.818Z,5.90
2019-02-27T15:18:48.956Z,6.00
2019-02-27T15:23:55.140Z,6.20
2019-02-27T15:29:03.108Z,5.87
2019-02-27T15:34:11.851Z,8.20
2019-02-27T15:39:20.288Z,6.30
2019-02-27T15:44:26.320Z,7.60
2019-02-27T15:49:32.555Z,7.20
2019-02-27T15:54:38.921Z,7.97
2019-02-27T15:59:45.209Z,7.30
2019-02-27T16:04:52.183Z,7.03
2019-02-27T16:10:06.775Z,6.60
2019-02-27T16:15:16.963Z,6.70
2019-02-27T16:20:27.742Z,6.20
2019-02-27T16:25:35.210Z,6.50
2019-02-27T16:30:43.043Z,6.90
2019-02-27T16:35:49.413Z,5.53
2019-02-27T16:40:55.531Z,6.63
2019-02-27T16:46:07.692Z,6.73
2019-02-27T16:51:11.198Z,6.13
2019-02-27T16:56:19.684Z,6.70
2019-02-27T17:01:29.524Z,7.53
2019-02-27T17:06:36.781Z,7.30
2019-02-27T17:11:43.885Z,7.13
2019-02-27T17:16:49.781Z,6.87
2019-02-27T17:21:58.791Z,6.77
2019-02-27T17:27:05.446Z,7.87
2019-02-27T17:32:13.637Z,7.27
2019-02-27T17:37:21.103Z,7.30
2019-02-27T17:42:27.638Z,7.00
2019-02-27T17:47:34.149Z,6.03
2019-02-27T17:52:40.506Z,5.97
2019-02-27T17:57:46.615Z,6.00
2019-02-27T18:02:52.579Z,7.77
2019-02-27T18:07:59.530Z,8.10
2019-02-27T18:13:06.292Z,6.90
2019-02-27T18:18:13.817Z,8.43
2019-02-27T18:23:22.023Z,8.93
2019-02-27T18:28:32.706Z,11.57
2019-02-27T18:33:37.666Z,11.30
2019-02-27T18:38:43.913Z,12.70
2019-02-27T18:43:49.797Z,13.10
2019-02-27T18:48:56.268Z,13.97
2019-02-27T18:54:03.280Z,16.07
2019-02-27T18:59:23.354Z,18.10
2019-02-27T19:04:35.023Z,17.17
2019-02-27T19:09:58.396Z,16.93
2019-02-27T19:15:08.182Z,18.60
2019-02-27T19:20:47.169Z,16.80
2019-02-27T19:25:54.159Z,16.83
2019-02-27T19:31:01.023Z,16.50
2019-02-27T19:36:08.754Z,16.43
2019-02-27T19:41:16.337Z,15.63
2019-02-27T19:46:23.389Z,16.00
2019-02-27T19:51:30.700Z,16.57
2019-02-27T19:56:38.278Z,16.13
2019-02-27T20:01:48.895Z,16.77
2019-02-27T20:06:54.006Z,15.57
2019-02-27T20:12:00.818Z,16.23
2019-02-27T20:17:07.929Z,15.70
2019-02-27T20:22:19.003Z,15.73
2019-02-27T20:27:26.874Z,13.73
2019-02-27T20:32:33.817Z,15.33
2019-02-27T20:37:41.367Z,15.20
2019-02-27T20:42:51.430Z,14.87
2019-02-27T20:48:00.724Z,13.87
2019-02-27T20:53:05.720Z,12.40
2019-02-27T20:58:16.349Z,10.87
2019-02-27T21:03:26.765Z,10.03
2019-02-27T21:08:33.305Z,9.53
2019-02-27T21:13:39.095Z,10.43
2019-02-27T21:18:45.084Z,9.83
2019-02-27T21:23:51.837Z,8.97
2019-02-27T21:28:59.018Z,8.57
2019-02-27T21:34:05.927Z,9.27
2019-02-27T21:39:12.714Z,8.33
2019-02-27T21:44:25.497Z,8.60
2019-02-27T21:49:31.841Z,8.57
2019-02-27T21:54:39.303Z,7.70
2019-02-27T21:59:44.340Z,8.20
2019-02-27T22:04:50.432Z,8.23
2019-02-27T22:09:56.260Z,7.17
2019-02-27T22:15:03.329Z,7.77
2019-02-27T22:20:13.359Z,7.70
2019-02-27T22:25:21.288Z,7.23
2019-02-27T22:30:31.789Z,8.40
2019-02-27T22:35:38.625Z,7.27
2019-02-27T22:40:44.599Z,7.53
2019-02-27T22:45:50.527Z,8.17
2019-02-27T22:50:58.515Z,7.07
2019-02-27T22:56:05.349Z,7.33
2019-02-27T23:01:18.152Z,8.30
2019-02-27T23:06:24.817Z,7.63
2019-02-27T23:11:46.214Z,7.50
2019-02-27T23:16:52.291Z,7.50
2019-02-27T23:21:58.697Z,7.90
2019-02-27T23:27:04.885Z,7.10
2019-02-27T23:32:30.073Z,7.93
2019-02-27T23:37:38.503Z,7.80
2019-02-27T23:42:45.469Z,7.83
2019-02-27T23:47:51.406Z,7.60
2019-02-27T23:52:57.737Z,7.67
2019-02-27T23:58:04.092Z,7.77
